createdAt,value
2022-09-23T00:01:54.091Z,11.70
2022-09-23T00:07:55.720Z,9.77
2022-09-23T00:13:58.596Z,9.38
2022-09-23T00:20:00.403Z,7.78
2022-09-23T00:26:02.935Z,9.43
2022-09-23T00:32:04.556Z,8.02
2022-09-23T00:38:05.895Z,16.17
2022-09-23T00:44:27.528Z,9.93
2022-09-23T00:50:37.440Z,11.35
2022-09-23T00:56:39.292Z,11.23
2022-09-23T01:02:40.703Z,8.20
2022-09-23T01:08:44.289Z,8.40
2022-09-23T01:14:48.272Z,8.65
2022-09-23T01:21:07.064Z,9.07
2022-09-23T01:27:27.758Z,9.00
2022-09-23T01:33:39.459Z,9.27
2022-09-23T01:39:47.952Z,8.60
2022-09-23T01:45:54.329Z,9.20
2022-09-23T01:52:06.756Z,8.70
2022-09-23T01:58:16.968Z,9.53
2022-09-23T02:04:22.361Z,11.07
2022-09-23T02:10:35.953Z,8.83
2022-09-23T02:16:42.560Z,8.57
2022-09-23T02:23:03.077Z,9.95
2022-09-23T02:29:04.468Z,10.47
2022-09-23T02:35:15.561Z,7.90
2022-09-23T02:41:36.684Z,8.67
2022-09-23T02:47:39.599Z,9.43
2022-09-23T02:53:40.971Z,8.27
2022-09-23T02:59:42.366Z,8.33
2022-09-23T03:05:49.565Z,8.45
2022-09-23T03:11:56.814Z,9.17
2022-09-23T03:18:07.592Z,10.80
2022-09-23T03:24:10.640Z,10.35
2022-09-23T03:30:12.942Z,10.37
2022-09-23T03:36:34.442Z,8.48
2022-09-23T03:42:37.242Z,9.57
2022-09-23T03:48:38.611Z,10.07
2022-09-23T03:54:40.100Z,10.23
2022-09-23T04:00:42.293Z,9.33
2022-09-23T04:06:43.757Z,8.45
2022-09-23T04:12:45.178Z,8.47
2022-09-23T04:18:46.721Z,10.80
2022-09-23T04:24:48.580Z,10.68
2022-09-23T04:30:50.004Z,10.60
2022-09-23T04:36:51.686Z,10.48
2022-09-23T04:42:53.055Z,8.90
2022-09-23T04:48:56.482Z,8.68
2022-09-23T04:54:57.859Z,10.88
2022-09-23T05:01:07.441Z,11.03
2022-09-23T05:07:10.484Z,9.75
2022-09-23T05:13:11.841Z,8.70
2022-09-23T05:19:13.440Z,10.65
2022-09-23T05:25:14.889Z,11.02
2022-09-23T05:31:20.845Z,10.67
2022-09-23T05:37:23.190Z,13.35
2022-09-23T05:43:24.880Z,13.00
2022-09-23T05:49:42.571Z,10.90
2022-09-23T05:55:47.691Z,12.55
2022-09-23T06:01:52.003Z,11.40
2022-09-23T06:07:54.631Z,8.82
2022-09-23T06:14:01.336Z,12.47
2022-09-23T06:20:02.844Z,9.05
2022-09-23T06:26:05.456Z,7.20
2022-09-23T06:32:06.888Z,6.93
2022-09-23T06:38:08.288Z,8.65
2022-09-23T06:44:09.746Z,6.13
2022-09-23T06:50:12.433Z,7.78
2022-09-23T06:56:14.083Z,6.55
2022-09-23T07:02:16.600Z,7.83
2022-09-23T07:08:18.840Z,7.07
2022-09-23T07:14:20.283Z,7.53
2022-09-23T07:20:21.826Z,8.40
2022-09-23T07:26:23.936Z,6.07
2022-09-23T07:32:25.419Z,6.57
2022-09-23T07:38:30.196Z,8.45
2022-09-23T07:44:32.183Z,9.37
2022-09-23T07:50:33.767Z,7.25
2022-09-23T07:56:35.984Z,7.57
2022-09-23T08:02:37.378Z,5.97
2022-09-23T08:08:40.569Z,6.65
2022-09-23T08:14:42.175Z,6.17
2022-09-23T08:20:47.804Z,6.82
2022-09-23T08:26:51.381Z,5.50
2022-09-23T08:32:52.741Z,6.63
2022-09-23T08:38:55.155Z,5.45
2022-09-23T08:44:58.882Z,5.57
2022-09-23T08:51:07.354Z,6.70
2022-09-23T08:57:14.883Z,5.38
2022-09-23T09:03:19.585Z,7.67
2022-09-23T09:09:30.479Z,6.22
2022-09-23T09:15:34.562Z,5.97
2022-09-23T09:21:39.218Z,7.47
2022-09-23T09:27:41.183Z,6.85
2022-09-23T09:34:00.210Z,6.87
2022-09-23T09:40:02.253Z,7.78
2022-09-23T09:46:15.879Z,7.60
2022-09-23T09:52:22.414Z,6.32
2022-09-23T09:58:24.777Z,5.03
2022-09-23T10:04:33.785Z,6.77
2022-09-23T10:10:35.318Z,6.00
2022-09-23T10:16:37.137Z,7.00
2022-09-23T10:22:40.368Z,5.78
2022-09-23T10:28:52.326Z,6.65
2022-09-23T10:34:57.045Z,5.77
2022-09-23T10:41:17.107Z,6.18
2022-09-23T10:47:35.994Z,5.03
2022-09-23T10:53:53.376Z,5.05
2022-09-23T10:59:55.095Z,5.32
2022-09-23T11:06:12.849Z,7.77
2022-09-23T11:12:32.282Z,4.88
2022-09-23T11:18:44.656Z,6.10
2022-09-23T11:25:00.098Z,5.10
2022-09-23T11:31:10.097Z,5.32
2022-09-23T11:37:17.099Z,5.20
2022-09-23T11:43:21.619Z,4.32
2022-09-23T11:49:40.023Z,3.60
2022-09-23T11:55:56.832Z,5.30
2022-09-23T12:02:14.271Z,5.10
2022-09-23T12:08:33.566Z,4.63
2022-09-23T12:14:58.457Z,3.85
2022-09-23T12:21:45.704Z,4.43
2022-09-23T12:27:44.681Z,5.00
2022-09-23T12:33:53.552Z,5.32
2022-09-23T12:39:58.242Z,4.30
2022-09-23T12:46:19.911Z,4.32
2022-09-23T12:52:32.452Z,4.67
2022-09-23T12:58:37.433Z,4.00
2022-09-23T13:05:00.505Z,4.20
2022-09-23T13:11:02.746Z,4.37
2022-09-23T13:17:04.599Z,3.70
2022-09-23T13:23:22.644Z,3.50
2022-09-23T13:29:26.464Z,4.07
2022-09-23T13:35:34.011Z,5.18
2022-09-23T13:41:35.906Z,4.13
2022-09-23T13:47:41.306Z,3.95
2022-09-23T13:53:42.742Z,3.33
2022-09-23T13:59:44.119Z,3.72
2022-09-23T14:05:46.099Z,4.30
2022-09-23T14:11:49.159Z,5.43
2022-09-23T14:17:57.357Z,3.20
2022-09-23T14:24:04.964Z,3.33
2022-09-23T14:30:06.690Z,3.70
2022-09-23T14:36:30.074Z,3.47
2022-09-23T14:42:37.381Z,3.40
2022-09-23T14:48:38.954Z,3.30
2022-09-23T14:54:44.810Z,5.17
2022-09-23T15:00:54.203Z,4.50
2022-09-23T15:06:58.043Z,3.92
2022-09-23T15:13:05.586Z,3.57
2022-09-23T15:19:14.796Z,3.55
2022-09-23T15:25:18.482Z,5.50
2022-09-23T15:31:20.906Z,5.80
2022-09-23T15:37:22.351Z,6.18
2022-09-23T15:43:25.008Z,4.27
2022-09-23T15:49:34.136Z,3.95
2022-09-23T15:55:35.555Z,4.20
2022-09-23T16:01:37.126Z,3.53
2022-09-23T16:07:38.504Z,4.10
2022-09-23T16:13:39.857Z,5.50
2022-09-23T16:19:41.426Z,4.45
2022-09-23T16:25:42.808Z,7.63
2022-09-23T16:31:44.232Z,5.63
2022-09-23T16:37:47.012Z,5.85
2022-09-23T16:43:49.038Z,9.97
2022-09-23T16:49:50.474Z,9.27
2022-09-23T16:55:53.608Z,6.80
2022-09-23T17:02:13.809Z,5.97
2022-09-23T17:08:15.874Z,6.30
2022-09-23T17:14:17.621Z,5.87
2022-09-23T17:20:20.045Z,6.03
2022-09-23T17:26:23.302Z,8.52
2022-09-23T17:32:25.311Z,12.47
2022-09-23T17:38:29.327Z,7.43
2022-09-23T17:44:31.071Z,9.73
2022-09-23T17:50:32.648Z,8.68
2022-09-23T17:56:34.173Z,9.50
2022-09-23T18:02:35.744Z,9.40
2022-09-23T18:08:37.207Z,8.32
2022-09-23T18:14:39.122Z,9.97
2022-09-23T18:20:40.560Z,11.75
2022-09-23T18:26:42.841Z,10.02
2022-09-23T18:32:44.943Z,9.83
2022-09-23T18:38:46.847Z,11.65
2022-09-23T18:44:49.837Z,11.20
2022-09-23T18:50:51.844Z,11.20
2022-09-23T18:56:53.318Z,13.02
2022-09-23T19:02:54.774Z,14.97
2022-09-23T19:08:56.247Z,14.82
2022-09-23T19:14:58.843Z,15.73
2022-09-23T19:21:03.657Z,12.57
2022-09-23T19:27:08.281Z,12.40
2022-09-23T19:33:09.924Z,13.20
2022-09-23T19:39:31.841Z,15.98
2022-09-23T19:45:34.217Z,17.80
2022-09-23T19:51:35.636Z,13.15
2022-09-23T19:57:37.066Z,12.73
2022-09-23T20:03:38.835Z,11.63
2022-09-23T20:09:40.226Z,11.90
2022-09-23T20:15:43.921Z,11.90
2022-09-23T20:21:45.340Z,12.85
2022-09-23T20:27:49.375Z,9.82
2022-09-23T20:33:51.507Z,9.63
2022-09-23T20:39:53.038Z,12.38
2022-09-23T20:45:55.130Z,11.43
2022-09-23T20:51:56.495Z,9.90
2022-09-23T20:57:57.879Z,9.98
2022-09-23T21:03:59.306Z,13.17
2022-09-23T21:10:04.760Z,16.98
2022-09-23T21:16:08.520Z,13.80
2022-09-23T21:22:10.408Z,11.63
2022-09-23T21:28:12.317Z,11.23
2022-09-23T21:34:14.485Z,10.97
2022-09-23T21:40:34.877Z,11.75
2022-09-23T21:46:36.626Z,12.17
2022-09-23T21:52:39.050Z,10.77
2022-09-23T21:58:40.738Z,12.95
2022-09-23T22:04:42.182Z,12.40
2022-09-23T22:10:43.690Z,10.45
2022-09-23T22:16:45.247Z,10.00
2022-09-23T22:22:46.659Z,10.30
2022-09-23T22:29:06.852Z,11.77
2022-09-23T22:35:09.034Z,9.03
2022-09-23T22:41:13.911Z,11.43
2022-09-23T22:47:15.362Z,8.57
2022-09-23T22:53:17.095Z,9.18
2022-09-23T22:59:18.562Z,9.55
2022-09-23T23:05:20.054Z,10.53
2022-09-23T23:11:21.586Z,10.27
2022-09-23T23:17:22.967Z,9.87
2022-09-23T23:23:24.347Z,9.18
2022-09-23T23:29:25.830Z,10.25
2022-09-23T23:35:27.319Z,12.73
2022-09-23T23:41:28.745Z,9.85
2022-09-23T23:47:30.120Z,11.50
2022-09-23T23:53:32.824Z,9.00
2022-09-23T23:59:34.472Z,9.82
